Time;durP1;ratioP1;P1;durP2;ratioP2;P2;SDS_P1;SDS_P2;PMS_P1;PMS_P2;Temp;Humidity;BMP_temperature;BMP_pressure;BME280_temperature;BME280_humidity;BME280_pressure;Samples;Min_cycle;Max_cycle;Signal;HPM_P1;HPM_P2
2023/08/23 00:01:47;;;;;;;7.25;3.03;;;;;;;22.23;73.96;99478.75;4882870;29;20048;-78
2023/08/23 00:04:34;;;;;;;6.53;3.03;;;;;;;22.12;74.15;99467.22;4881776;29;20064;-79
2023/08/23 00:07:18;;;;;;;6.90;3.28;;;;;;;22.25;73.91;99472.06;4880269;29;20096;-78
2023/08/23 00:10:02;;;;;;;8.32;3.63;;;;;;;22.29;73.37;99463.50;4879874;29;20108;-78
2023/08/23 00:12:49;;;;;;;8.82;3.28;;;;;;;22.07;74.30;99459.16;4880491;29;20526;-78
2023/08/23 00:15:33;;;;;;;16.10;3.63;;;;;;;22.02;74.47;99457.28;4881104;29;20535;-78
2023/08/23 00:18:17;;;;;;;6.30;3.47;;;;;;;22.19;74.20;99458.91;4885751;29;20109;-77
2023/08/23 00:21:01;;;;;;;8.88;3.65;;;;;;;22.03;74.56;99453.53;4882948;29;20047;-78
2023/08/23 00:23:45;;;;;;;8.10;3.20;;;;;;;22.01;74.45;99454.84;4879472;29;20067;-78
2023/08/23 00:26:29;;;;;;;6.68;3.70;;;;;;;21.95;74.65;99448.66;4880937;29;20505;-77
2023/08/23 00:29:13;;;;;;;9.70;3.47;;;;;;;22.10;74.53;99458.63;4884977;29;20177;-78
2023/08/23 00:31:57;;;;;;;8.30;3.58;;;;;;;21.81;75.14;99446.47;4889328;29;20031;-79
2023/08/23 00:34:41;;;;;;;8.23;3.50;;;;;;;21.73;75.35;99451.50;4887819;29;21437;-79
2023/08/23 00:37:25;;;;;;;8.07;3.72;;;;;;;21.60;75.53;99444.69;4883905;29;20567;-79
2023/08/23 00:40:10;;;;;;;6.40;3.13;;;;;;;21.69;75.49;99449.31;4889921;29;20629;-79
2023/08/23 00:42:54;;;;;;;11.15;3.55;;;;;;;21.68;75.81;99447.72;4886019;29;20047;-78
2023/08/23 00:45:40;;;;;;;8.63;3.25;;;;;;;21.62;76.30;99447.94;4887799;29;20043;-78
2023/08/23 00:48:24;;;;;;;7.38;3.80;;;;;;;21.66;75.76;99443.72;4886891;29;20072;-79
2023/08/23 00:51:09;;;;;;;17.30;3.92;;;;;;;21.60;75.88;99444.69;4889558;29;20114;-79
2023/08/23 00:53:53;;;;;;;8.88;3.60;;;;;;;21.83;75.25;99448.88;4887744;29;20052;-79
2023/08/23 00:56:38;;;;;;;7.50;3.22;;;;;;;21.73;75.42;99448.84;4888737;29;20052;-79
2023/08/23 00:59:22;;;;;;;7.97;3.70;;;;;;;21.72;75.81;99444.56;4890245;29;20052;-79
2023/08/23 01:02:08;;;;;;;9.02;3.50;;;;;;;21.61;76.43;99436.44;4885725;29;20105;-78
2023/08/23 01:04:52;;;;;;;10.63;3.72;;;;;;;21.69;75.99;99448.53;4883526;29;20060;-78
2023/08/23 01:07:45;;;;;;;11.07;3.63;;;;;;;21.71;76.48;99448.25;4893740;29;20088;-78
2023/08/23 01:10:29;;;;;;;8.47;3.40;;;;;;;21.65;76.18;99447.44;4891999;29;20120;-79
2023/08/23 01:13:29;;;;;;;7.50;3.88;;;;;;;21.78;76.22;99449.66;4890589;29;20059;-79
2023/08/23 01:16:15;;;;;;;9.85;4.10;;;;;;;21.63;76.51;99444.22;4886955;29;20079;-79
2023/08/23 01:19:03;;;;;;;8.57;3.70;;;;;;;21.46;77.02;99447.03;4886578;29;20104;-78
2023/08/23 01:21:49;;;;;;;12.55;3.90;;;;;;;21.48;77.02;99456.41;4889740;29;20093;-78
2023/08/23 01:24:33;;;;;;;13.73;5.15;;;;;;;21.53;76.91;99445.75;4884209;29;20072;-79
2023/08/23 01:27:17;;;;;;;10.90;4.15;;;;;;;21.82;76.51;99444.59;4883648;29;20052;-79
2023/08/23 01:30:02;;;;;;;10.85;4.30;;;;;;;21.87;75.96;99438.50;4889854;29;22111;-80
2023/08/23 01:32:54;;;;;;;13.50;4.82;;;;;;;21.94;76.02;99444.38;4887735;29;20051;-79
2023/08/23 01:35:59;;;;;;;12.73;5.13;;;;;;;22.17;75.45;99423.63;4885195;29;20067;-79
2023/08/23 01:38:47;;;;;;;13.45;6.82;;;;;;;22.03;75.96;99445.50;4892126;29;20183;-78
2023/08/23 01:41:31;;;;;;;10.52;7.40;;;;;;;21.92;76.31;99446.53;4886571;29;20403;-78
2023/08/23 01:44:15;;;;;;;10.48;7.35;;;;;;;21.83;76.35;99448.88;4889008;29;20151;-78
2023/08/23 01:46:59;;;;;;;15.75;6.63;;;;;;;21.93;76.49;99448.13;4883617;29;20102;-79
2023/08/23 01:49:43;;;;;;;8.93;6.18;;;;;;;21.66;77.22;99451.72;4888216;29;20188;-79
2023/08/23 01:52:27;;;;;;;12.25;6.07;;;;;;;21.62;77.49;99450.63;4887145;29;20060;-78
2023/08/23 01:55:11;;;;;;;11.05;4.78;;;;;;;21.30;78.46;99446.91;4886497;29;20051;-78
2023/08/23 01:57:55;;;;;;;10.85;4.07;;;;;;;21.39;77.91;99445.38;4885378;29;20150;-78
2023/08/23 02:00:45;;;;;;;12.20;4.20;;;;;;;21.11;79.28;99438.50;4883078;29;20120;-78
2023/08/23 02:03:29;;;;;;;11.45;4.63;;;;;;;21.06;79.13;99433.91;4883352;29;20140;-78
2023/08/23 02:06:13;;;;;;;9.68;4.28;;;;;;;21.07;79.32;99437.41;4888170;29;20052;-79
2023/08/23 02:08:57;;;;;;;8.00;4.10;;;;;;;21.41;78.70;99442.44;4888602;29;20124;-78
2023/08/23 02:11:41;;;;;;;12.80;4.60;;;;;;;21.19;79.43;99451.34;4885514;29;20040;-78
2023/08/23 02:14:25;;;;;;;14.10;4.47;;;;;;;21.25;79.51;99446.88;4885765;29;20103;-78
2023/08/23 02:17:09;;;;;;;7.20;3.70;;;;;;;21.12;79.83;99442.78;4886954;29;20047;-77
2023/08/23 02:19:53;;;;;;;11.10;4.47;;;;;;;20.90;80.58;99432.16;4884721;29;20112;-78
2023/08/23 02:22:37;;;;;;;7.25;3.88;;;;;;;21.22;79.91;99434.84;4880831;29;20453;-78
2023/08/23 02:25:21;;;;;;;14.70;4.82;;;;;;;21.03;80.54;99426.41;4882870;29;20056;-78
2023/08/23 02:28:05;;;;;;;13.70;4.10;;;;;;;21.31;80.24;99416.47;4889442;29;20040;-78
2023/08/23 02:30:49;;;;;;;12.45;4.40;;;;;;;21.48;79.59;99420.84;4883142;29;20048;-78
2023/08/23 02:33:33;;;;;;;10.25;4.22;;;;;;;21.47;79.50;99429.94;4889663;29;20071;-78
2023/08/23 02:36:17;;;;;;;11.63;3.88;;;;;;;21.48;79.52;99424.34;4884687;29;20094;-80
2023/08/23 02:39:01;;;;;;;12.02;4.10;;;;;;;21.67;79.67;99435.44;4887169;29;20051;-79
2023/08/23 02:41:45;;;;;;;11.10;3.50;;;;;;;21.57;79.28;99438.03;4886457;29;20048;-79
2023/08/23 02:44:29;;;;;;;11.38;3.47;;;;;;;21.58;79.52;99439.63;4886254;29;20048;-79
2023/08/23 02:47:13;;;;;;;10.82;3.80;;;;;;;21.71;78.99;99429.56;4890540;29;20450;-78
2023/08/23 02:49:57;;;;;;;6.68;3.63;;;;;;;21.77;78.71;99434.69;4882708;29;20043;-79
2023/08/23 02:52:40;;;;;;;10.05;3.92;;;;;;;21.72;78.35;99442.69;4886100;29;20108;-78
2023/08/23 02:55:24;;;;;;;;;;;;;;;21.58;78.89;99441.50;4885151;29;20075;-80
2023/08/23 02:58:08;;;;;;;11.05;3.85;;;;;;;21.59;79.40;99435.91;4885534;29;19923;-79
2023/08/23 03:00:52;;;;;;;7.80;3.47;;;;;;;21.71;79.38;99430.38;4886731;29;20040;-80
2023/08/23 03:03:36;;;;;;;8.88;3.55;;;;;;;21.60;79.97;99439.34;4887468;29;20043;-80
2023/08/23 03:06:21;;;;;;;8.82;3.67;;;;;;;21.74;79.30;99451.22;4889069;29;20546;-81
2023/08/23 03:09:05;;;;;;;12.00;4.05;;;;;;;21.82;79.07;99457.97;4882404;29;20063;-80
2023/08/23 03:11:49;;;;;;;13.70;4.20;;;;;;;21.95;78.64;99446.00;4882417;29;20563;-80
2023/08/23 03:14:36;;;;;;;9.65;3.63;;;;;;;21.83;79.28;99441.69;4890880;29;20040;-80
2023/08/23 03:17:20;;;;;;;10.23;4.10;;;;;;;22.37;77.54;99441.63;4884627;29;20088;-79
2023/08/23 03:20:04;;;;;;;10.77;4.97;;;;;;;21.97;78.83;99430.50;4885935;29;20055;-80
2023/08/23 03:22:48;;;;;;;12.88;5.72;;;;;;;21.86;79.22;99431.53;4885929;29;20052;-79
2023/08/23 03:25:32;;;;;;;13.30;6.45;;;;;;;21.91;79.09;99439.56;4887775;29;20051;-80
2023/08/23 03:28:16;;;;;;;11.32;5.95;;;;;;;22.36;78.92;99438.13;4882197;29;20036;-79
2023/08/23 03:31:03;;;;;;;13.73;6.95;;;;;;;22.07;78.59;99424.41;4881646;29;20514;-79
2023/08/23 03:33:47;;;;;;;16.77;6.57;;;;;;;21.81;79.50;99432.31;4880176;29;20510;-79
2023/08/23 03:36:31;;;;;;;12.18;6.40;;;;;;;21.83;79.50;99414.97;4887507;29;20100;-79
2023/08/23 03:39:15;;;;;;;16.35;6.95;;;;;;;21.80;78.58;99428.03;4890153;29;20052;-79
2023/08/23 03:41:58;;;;;;;17.20;7.90;;;;;;;21.54;80.09;99436.66;4884575;29;20052;-79
2023/08/23 03:44:42;;;;;;;13.70;5.78;;;;;;;21.52;80.00;99425.44;4886542;29;20129;-80
2023/08/23 03:47:26;;;;;;;12.68;5.15;;;;;;;21.47;80.46;99436.09;4884370;29;20044;-80
2023/08/23 03:50:12;;;;;;;13.30;5.18;;;;;;;21.49;80.82;99428.63;4883174;29;20044;-79
2023/08/23 03:52:55;;;;;;;15.02;5.70;;;;;;;21.44;80.79;99417.09;4883656;29;20115;-79
2023/08/23 03:55:40;;;;;;;10.15;4.80;;;;;;;21.65;80.45;99415.41;4883984;29;20104;-79
2023/08/23 03:58:24;;;;;;;15.65;5.53;;;;;;;21.31;81.14;99411.13;4883589;29;20093;-78
2023/08/23 04:01:08;;;;;;;11.10;4.53;;;;;;;21.64;80.36;99411.09;4884368;29;20071;-79
2023/08/23 04:03:52;;;;;;;11.13;4.70;;;;;;;21.50;80.82;99400.84;4890188;29;20039;-79
2023/08/23 04:06:36;;;;;;;12.63;5.75;;;;;;;21.55;80.42;99400.88;4888423;29;20070;-79
2023/08/23 04:09:20;;;;;;;13.60;4.90;;;;;;;21.55;80.78;99395.53;4889283;29;20044;-79
2023/08/23 04:12:05;;;;;;;10.32;5.28;;;;;;;21.30;81.34;99409.53;4890235;29;20106;-79
2023/08/23 04:14:49;;;;;;;11.40;4.55;;;;;;;21.38;81.23;99394.91;4884675;29;20052;-80
2023/08/23 04:17:33;;;;;;;11.85;5.15;;;;;;;21.10;82.29;99388.84;4888114;29;20051;-80
2023/08/23 04:20:17;;;;;;;15.52;6.43;;;;;;;21.22;82.32;99396.66;4886429;29;20044;-80
2023/08/23 04:23:02;;;;;;;15.77;8.18;;;;;;;21.29;82.65;99399.13;4891372;29;20079;-79
2023/08/23 04:25:45;;;;;;;18.27;8.70;;;;;;;21.41;82.57;99394.38;4891466;29;20468;-79
2023/08/23 04:28:30;;;;;;;16.33;8.20;;;;;;;21.48;82.47;99400.31;4886621;29;20419;-79
2023/08/23 04:31:15;;;;;;;15.25;6.90;;;;;;;21.34;82.60;99399.97;4884217;29;20415;-80
2023/08/23 04:33:59;;;;;;;9.73;6.70;;;;;;;21.30;83.09;99404.19;4889654;29;20518;-80
2023/08/23 04:36:43;;;;;;;12.77;5.55;;;;;;;21.33;83.47;99402.88;4889213;29;20095;-79
2023/08/23 04:39:27;;;;;;;21.70;6.25;;;;;;;21.33;84.16;99402.88;4887880;29;20048;-79
2023/08/23 04:42:11;;;;;;;15.95;6.32;;;;;;;21.34;84.29;99399.97;4884985;29;20405;-79
2023/08/23 04:44:54;;;;;;;16.25;6.38;;;;;;;21.50;84.71;99410.72;4888792;29;20044;-79
2023/08/23 04:47:38;;;;;;;15.52;6.25;;;;;;;21.22;85.84;99418.03;4889624;29;20048;-79
2023/08/23 04:50:22;;;;;;;12.10;6.10;;;;;;;21.32;85.60;99417.28;4891579;29;20150;-78
2023/08/23 04:53:06;;;;;;;10.15;6.15;;;;;;;21.31;86.02;99421.03;4889333;29;20165;-79
2023/08/23 04:55:54;;;;;;;7.82;5.35;;;;;;;21.25;86.35;99409.50;4885808;29;20456;-79
2023/08/23 04:58:39;;;;;;;13.27;6.70;;;;;;;21.24;86.69;99426.56;4890846;29;20044;-78
2023/08/23 05:01:23;;;;;;;15.60;7.30;;;;;;;21.32;86.44;99422.63;4892822;29;20114;-79
2023/08/23 05:04:08;;;;;;;17.45;7.25;;;;;;;21.39;86.12;99423.19;4886380;29;20099;-78
2023/08/23 05:06:51;;;;;;;18.98;8.02;;;;;;;21.40;86.28;99419.47;4883622;29;20169;-79
2023/08/23 05:09:35;;;;;;;13.95;7.10;;;;;;;21.49;86.24;99420.63;4887463;29;20082;-79
2023/08/23 05:12:19;;;;;;;15.50;7.55;;;;;;;21.49;86.06;99425.97;4884235;29;20115;-80
2023/08/23 05:15:04;;;;;;;22.10;8.90;;;;;;;21.15;87.06;99420.13;4884899;29;20047;-79
2023/08/23 05:17:48;;;;;;;16.65;7.82;;;;;;;21.48;86.34;99424.34;4888479;29;20047;-79
2023/08/23 05:20:32;;;;;;;18.67;10.05;;;;;;;21.48;86.23;99432.34;4889925;29;20055;-79
2023/08/23 05:23:16;;;;;;;24.58;11.85;;;;;;;21.21;87.06;99433.22;4884501;29;20087;-79
2023/08/23 05:26:01;;;;;;;19.92;11.65;;;;;;;21.57;86.70;99423.84;4888249;29;20083;-79
2023/08/23 05:28:45;;;;;;;23.77;12.65;;;;;;;21.45;86.54;99432.06;4885030;29;20055;-79
2023/08/23 05:31:28;;;;;;;27.20;13.68;;;;;;;21.61;86.46;99433.78;4884691;29;20063;-79
2023/08/23 05:34:12;;;;;;;22.33;13.90;;;;;;;21.67;86.50;99429.31;4888981;29;20051;-79
2023/08/23 05:36:56;;;;;;;28.40;17.00;;;;;;;21.37;87.14;99425.31;4889410;29;20048;-79
2023/08/23 05:39:40;;;;;;;33.72;16.90;;;;;;;21.53;86.86;99420.91;4887367;29;20415;-79
2023/08/23 05:42:24;;;;;;;27.20;16.77;;;;;;;21.29;87.21;99423.94;4889900;29;20456;-79
2023/08/23 05:45:08;;;;;;;33.65;18.70;;;;;;;21.13;87.76;99420.34;4892036;29;20104;-79
2023/08/23 05:47:54;;;;;;;31.15;17.20;;;;;;;21.04;88.51;99421.91;4886410;29;20048;-80
2023/08/23 05:50:38;;;;;;;27.52;18.17;;;;;;;21.36;87.67;99419.19;4886639;29;20104;-79
2023/08/23 05:53:22;;;;;;;27.95;17.38;;;;;;;21.41;87.41;99418.41;4889746;29;20052;-80
2023/08/23 05:56:06;;;;;;;25.13;15.38;;;;;;;21.87;85.89;99419.78;4887896;29;20047;-81
2023/08/23 05:58:50;;;;;;;23.02;16.23;;;;;;;21.84;85.16;99413.06;4883090;29;20479;-82
2023/08/23 06:01:34;;;;;;;22.95;14.77;;;;;;;21.86;85.14;99416.28;4886377;29;20069;-81
2023/08/23 06:04:19;;;;;;;23.58;15.10;;;;;;;21.96;84.76;99432.38;4884414;29;20055;-80
2023/08/23 06:07:03;;;;;;;26.45;14.60;;;;;;;21.76;85.19;99421.59;4885220;29;20073;-81
2023/08/23 06:09:47;;;;;;;23.13;15.02;;;;;;;21.66;84.88;99435.72;4883708;29;20453;-81
2023/08/23 06:12:31;;;;;;;19.70;13.70;;;;;;;21.87;84.28;99433.13;4889301;29;20039;-82
2023/08/23 06:15:15;;;;;;;20.00;12.52;;;;;;;21.82;84.11;99439.25;4888865;29;20172;-82
2023/08/23 06:17:59;;;;;;;21.50;13.57;;;;;;;22.47;82.23;99452.38;4887815;29;20058;-82
2023/08/23 06:20:45;;;;;;;19.55;12.90;;;;;;;21.58;85.11;99453.00;4885279;29;20517;-81
2023/08/23 06:23:29;;;;;;;22.90;12.95;;;;;;;21.68;84.68;99465.63;4886798;29;20110;-84
2023/08/23 06:26:13;;;;;;;22.67;13.68;;;;;;;21.83;84.71;99459.56;4882909;29;20064;-81
2023/08/23 06:28:57;;;;;;;25.80;13.90;;;;;;;21.77;84.89;99465.94;4886552;29;20076;-78
2023/08/23 06:31:41;;;;;;;22.88;13.60;;;;;;;21.88;85.04;99461.47;4885025;29;20073;-78
2023/08/23 06:34:25;;;;;;;28.23;15.57;;;;;;;21.87;84.70;99455.31;4883777;29;20099;-79
2023/08/23 06:37:11;;;;;;;25.92;14.18;;;;;;;21.74;85.43;99459.25;4888550;29;20167;-77
2023/08/23 06:39:58;;;;;;;22.35;13.05;;;;;;;21.89;85.26;99471.88;4888904;29;20136;-77
2023/08/23 06:42:42;;;;;;;25.65;13.55;;;;;;;21.98;85.03;99466.84;4884919;29;20047;-78
2023/08/23 06:45:26;;;;;;;23.65;13.32;;;;;;;22.10;84.54;99461.28;4885814;29;20531;-78
2023/08/23 06:48:10;;;;;;;21.88;13.20;;;;;;;22.33;83.89;99457.38;4888584;29;20044;-78
2023/08/23 06:50:54;;;;;;;24.13;14.68;;;;;;;22.02;84.37;99462.63;4885053;29;20505;-78
2023/08/23 06:53:38;;;;;;;21.80;13.07;;;;;;;22.06;84.28;99477.06;4884446;29;20048;-77
2023/08/23 06:56:25;;;;;;;19.48;13.45;;;;;;;22.05;84.49;99471.97;4887885;29;20506;-77
2023/08/23 06:59:09;;;;;;;18.80;12.95;;;;;;;22.19;84.14;99466.94;4886112;29;20529;-77
2023/08/23 07:01:53;;;;;;;22.52;14.05;;;;;;;22.33;83.62;99461.94;4886911;29;20040;-77
2023/08/23 07:04:37;;;;;;;22.70;13.95;;;;;;;22.30;83.66;99468.59;4886773;29;20554;-77
2023/08/23 07:07:21;;;;;;;19.90;12.35;;;;;;;22.25;83.67;99473.94;4885582;29;20579;-77
2023/08/23 07:10:06;;;;;;;19.98;13.32;;;;;;;22.21;83.57;99481.66;4888240;29;20055;-76
2023/08/23 07:12:50;;;;;;;27.25;14.32;;;;;;;22.44;83.18;99468.13;4887436;29;20067;-79
2023/08/23 07:15:35;;;;;;;24.08;13.88;;;;;;;22.43;83.57;99478.00;4888793;29;20510;-80
2023/08/23 07:18:20;;;;;;;25.55;13.18;;;;;;;22.42;83.81;99481.75;4885885;29;20395;-79
2023/08/23 07:21:04;;;;;;;19.95;11.77;;;;;;;22.58;82.84;99479.94;4885868;29;20440;-79
2023/08/23 07:23:48;;;;;;;19.10;11.32;;;;;;;22.33;83.39;99486.78;4880694;29;20048;-81
2023/08/23 07:26:33;;;;;;;19.10;10.57;;;;;;;22.39;83.45;99488.41;4882830;29;20468;-81
2023/08/23 07:29:17;;;;;;;23.05;11.38;;;;;;;22.34;83.23;99479.59;4884162;29;20104;-81
2023/08/23 07:32:02;;;;;;;22.00;11.13;;;;;;;22.11;84.90;99492.34;4882286;29;20055;-80
2023/08/23 07:34:46;;;;;;;21.75;12.43;;;;;;;22.31;84.20;99486.25;4882348;29;20043;-84
2023/08/23 07:37:30;;;;;;;24.33;13.07;;;;;;;22.45;84.49;99480.44;4883679;29;20044;-83
2023/08/23 07:40:15;;;;;;;24.63;13.95;;;;;;;22.32;84.17;99485.19;4880404;29;20159;-82
2023/08/23 07:42:59;;;;;;;27.15;15.70;;;;;;;22.32;84.58;99485.19;4886971;29;20468;-82
2023/08/23 07:45:50;;;;;;;26.30;13.45;;;;;;;22.26;84.68;99472.88;4881149;29;20081;-82
2023/08/23 07:48:34;;;;;;;18.45;11.23;;;;;;;22.49;84.32;99454.78;4887265;29;20047;-80
2023/08/23 07:51:18;;;;;;;24.60;11.45;;;;;;;22.59;83.87;99464.72;4884916;29;20457;-84
2023/08/23 07:54:03;;;;;;;23.50;10.85;;;;;;;22.62;83.95;99469.53;4886546;29;20081;-82
2023/08/23 07:56:47;;;;;;;19.40;10.40;;;;;;;22.89;83.54;99473.84;4886618;29;20121;-82
2023/08/23 07:59:31;;;;;;;16.95;10.10;;;;;;;23.05;83.23;99475.47;4884942;29;20099;-83
2023/08/23 08:02:15;;;;;;;23.13;11.10;;;;;;;23.03;83.29;99471.47;4886992;29;20096;-84
2023/08/23 08:04:59;;;;;;;17.67;10.85;;;;;;;23.16;82.94;99465.56;4886040;29;20071;-82
2023/08/23 08:07:43;;;;;;;18.90;10.63;;;;;;;23.30;82.51;99473.09;4888597;29;20514;-83
2023/08/23 08:10:26;;;;;;;16.45;8.95;;;;;;;23.33;82.56;99472.56;4886874;29;20522;-83
2023/08/23 08:13:11;;;;;;;14.68;8.32;;;;;;;23.21;82.17;99476.31;4882693;29;20539;-83
2023/08/23 08:15:55;;;;;;;18.65;8.70;;;;;;;23.04;82.18;99478.44;4885949;29;20088;-83
2023/08/23 08:18:40;;;;;;;24.02;9.30;;;;;;;22.99;82.22;99479.22;4885655;29;20052;-84
2023/08/23 08:21:24;;;;;;;15.88;7.85;;;;;;;23.05;83.00;99477.38;4889413;29;20096;-83
2023/08/23 08:24:08;;;;;;;17.30;9.02;;;;;;;23.30;83.38;99473.09;4885359;29;21612;-83
2023/08/23 08:26:52;;;;;;;17.30;9.13;;;;;;;23.60;83.79;99476.84;4887314;29;20154;-81
2023/08/23 08:29:36;;;;;;;16.00;9.13;;;;;;;23.80;83.40;99476.78;4887777;29;20073;-85
2023/08/23 08:32:21;;;;;;;15.10;9.40;;;;;;;24.07;82.15;99475.66;4888001;29;20075;-83
2023/08/23 08:35:05;;;;;;;16.33;8.68;;;;;;;24.35;81.02;99488.69;4882252;29;20044;-83
2023/08/23 08:37:49;;;;;;;14.98;8.88;;;;;;;24.44;80.00;99483.56;4886322;29;20085;-83
2023/08/23 08:40:35;;;;;;;14.27;8.23;;;;;;;24.33;79.24;99482.81;4886372;29;20132;-83
2023/08/23 08:43:20;;;;;;;15.27;7.78;;;;;;;24.78;78.37;99493.59;4888981;29;20092;-83
2023/08/23 08:46:07;;;;;;;10.25;7.25;;;;;;;24.51;78.38;99498.28;4883558;29;20059;-83
2023/08/23 08:48:51;;;;;;;10.73;8.15;;;;;;;24.89;78.38;99500.50;4888685;29;20064;-84
2023/08/23 08:51:38;;;;;;;19.15;8.02;;;;;;;24.98;76.96;99492.66;4895268;29;20447;-83
2023/08/23 08:54:24;;;;;;;12.00;7.60;;;;;;;25.62;77.14;99492.69;4888118;29;20124;-83
2023/08/23 08:57:11;;;;;;;12.88;7.60;;;;;;;26.30;74.04;99491.97;4891389;29;20046;-83
2023/08/23 08:59:56;;;;;;;12.55;6.75;;;;;;;26.05;74.13;99491.97;4889316;29;20047;-84
2023/08/23 09:02:44;;;;;;;13.98;6.68;;;;;;;26.26;72.96;99470.22;4887539;29;20077;-83
2023/08/23 09:05:28;;;;;;;13.40;6.85;;;;;;;26.81;73.44;99463.53;4889253;29;20049;-84
2023/08/23 09:08:13;;;;;;;12.60;6.57;;;;;;;27.10;72.25;99459.88;4889172;29;20505;-84
2023/08/23 09:10:57;;;;;;;12.32;6.15;;;;;;;27.43;70.75;99450.97;4890776;29;20052;-83
2023/08/23 09:13:41;;;;;;;7.30;4.95;;;;;;;27.68;69.47;99465.09;4889829;29;20039;-83
2023/08/23 09:16:26;;;;;;;7.07;4.93;;;;;;;27.73;67.66;99470.41;4890116;29;20093;-83
2023/08/23 09:19:11;;;;;;;13.45;4.50;;;;;;;27.40;66.78;99476.63;4887979;29;20554;-82
2023/08/23 09:21:55;;;;;;;8.10;4.05;;;;;;;27.19;66.59;99468.88;4888781;29;20051;-83
2023/08/23 09:24:39;;;;;;;4.63;3.58;;;;;;;27.34;64.92;99470.50;4890046;29;20604;-82
2023/08/23 09:27:24;;;;;;;5.38;3.72;;;;;;;27.17;65.43;99468.38;4889630;29;20052;-83
2023/08/23 09:30:08;;;;;;;9.52;3.83;;;;;;;27.55;66.05;99470.19;4889056;29;21456;-83
2023/08/23 09:32:52;;;;;;;5.78;4.18;;;;;;;27.59;65.47;99473.09;4889280;29;20559;-82
2023/08/23 09:35:46;;;;;;;6.32;3.67;;;;;;;27.69;64.84;99470.19;4893539;29;20571;-83
2023/08/23 09:38:30;;;;;;;;;;;;;;;27.42;66.09;99482.50;4892250;29;20490;-83
2023/08/23 09:41:14;;;;;;;8.40;3.47;;;;;;;27.24;65.97;99481.50;4889309;29;19935;-83
2023/08/23 09:43:59;;;;;;;7.53;3.90;;;;;;;27.47;66.05;99479.72;4888701;29;20535;-84
2023/08/23 09:46:48;;;;;;;9.45;4.13;;;;;;;27.44;65.99;99479.53;4885217;29;20063;-83
2023/08/23 09:49:35;;;;;;;8.38;4.43;;;;;;;27.29;66.86;99484.09;4888221;29;20594;-83
2023/08/23 09:52:23;;;;;;;9.95;4.20;;;;;;;27.84;66.38;99477.22;4885389;29;20105;-81
2023/08/23 09:55:11;;;;;;;6.13;4.68;;;;;;;28.07;67.56;99469.97;4888922;29;20052;-84
2023/08/23 09:57:56;;;;;;;7.18;4.13;;;;;;;27.85;66.32;99480.69;4889139;29;20060;-82
2023/08/23 10:00:41;;;;;;;11.45;4.70;;;;;;;27.93;66.55;99483.50;4880904;29;20037;-82
2023/08/23 10:03:25;;;;;;;10.68;4.13;;;;;;;27.82;67.83;99484.81;4887354;29;20100;-83
2023/08/23 10:06:10;;;;;;;7.15;4.40;;;;;;;28.19;66.99;99469.50;4895327;29;20127;-83
2023/08/23 10:08:56;;;;;;;8.77;4.68;;;;;;;28.38;67.03;99478.59;4883948;29;20088;-82
2023/08/23 10:11:40;;;;;;;7.28;4.47;;;;;;;28.66;64.35;99479.31;4889072;29;20097;-83
2023/08/23 10:14:25;;;;;;;7.60;4.30;;;;;;;28.74;63.89;99473.16;4882178;29;20564;-82
2023/08/23 10:17:13;;;;;;;7.82;4.20;;;;;;;28.63;63.75;99472.59;4888664;29;20058;-82
2023/08/23 10:19:57;;;;;;;6.30;3.92;;;;;;;28.95;63.71;99474.63;4888804;29;20040;-83
2023/08/23 10:22:41;;;;;;;10.00;4.50;;;;;;;28.82;64.38;99474.38;4884935;29;20068;-84
2023/08/23 10:25:25;;;;;;;7.75;3.67;;;;;;;28.38;66.75;99467.78;4888884;29;20096;-82
2023/08/23 10:28:18;;;;;;;8.05;4.13;;;;;;;29.66;63.30;99465.78;4883435;29;20097;-83
2023/08/23 10:31:02;;;;;;;6.75;3.60;;;;;;;29.54;62.60;99462.91;4885793;29;20101;-83
2023/08/23 10:33:53;;;;;;;4.43;3.50;;;;;;;29.95;62.69;99456.34;4886902;29;20047;-83
2023/08/23 10:36:38;;;;;;;7.63;3.30;;;;;;;29.86;61.75;99459.03;4886468;29;20051;-84
2023/08/23 10:39:27;;;;;;;4.82;3.63;;;;;;;29.01;63.24;99454.47;4889402;29;20070;-83
2023/08/23 10:42:11;;;;;;;6.45;3.80;;;;;;;28.96;63.78;99449.97;4887145;29;20136;-84
2023/08/23 10:45:05;;;;;;;6.63;3.67;;;;;;;28.59;64.05;99455.41;4886289;29;20048;-84
2023/08/23 10:47:50;;;;;;;6.95;3.78;;;;;;;28.86;65.46;99451.03;4890544;29;20043;-83
2023/08/23 10:50:35;;;;;;;4.82;3.45;;;;;;;29.64;63.68;99441.78;4888211;29;20048;-84
2023/08/23 10:53:19;;;;;;;4.45;3.30;;;;;;;29.88;62.77;99445.19;4885626;29;20036;-85
2023/08/23 10:56:03;;;;;;;4.07;3.40;;;;;;;30.67;61.27;99441.84;4884443;29;21985;-84
2023/08/23 10:58:48;;;;;;;4.95;3.78;;;;;;;30.74;60.10;99442.13;4888640;29;20113;-83
2023/08/23 11:01:38;;;;;;;5.10;4.03;;;;;;;30.13;59.83;99442.88;4885163;29;20464;-84
2023/08/23 11:04:23;;;;;;;4.28;3.50;;;;;;;29.10;61.86;99444.53;4888608;29;20131;-83
2023/08/23 11:07:07;;;;;;;5.72;3.50;;;;;;;28.90;62.50;99446.63;4890519;29;20055;-84
2023/08/23 11:09:50;;;;;;;5.78;3.60;;;;;;;29.70;61.42;99438.94;4883846;29;20100;-84
2023/08/23 11:12:35;;;;;;;4.32;3.08;;;;;;;29.77;60.66;99441.97;4883996;29;20034;-84
2023/08/23 11:15:21;;;;;;;2.90;2.50;;;;;;;30.46;59.88;99434.28;4889295;29;20460;-83
2023/08/23 11:18:05;;;;;;;3.10;2.58;;;;;;;30.49;58.71;99430.97;4887749;29;20105;-83
2023/08/23 11:20:49;;;;;;;3.45;2.78;;;;;;;30.18;59.67;99442.72;4888288;29;20168;-82
2023/08/23 11:23:37;;;;;;;2.40;2.20;;;;;;;28.85;60.49;99441.31;4886675;29;20048;-83
2023/08/23 11:26:21;;;;;;;2.75;2.42;;;;;;;28.48;62.23;99438.66;4887900;29;20047;-83
2023/08/23 11:29:05;;;;;;;2.45;2.20;;;;;;;28.79;62.45;99442.53;4886526;29;20063;-83
2023/08/23 11:31:54;;;;;;;2.30;2.15;;;;;;;28.87;62.04;99435.63;4885598;29;20092;-83
2023/08/23 11:34:39;;;;;;;3.42;2.83;;;;;;;29.19;61.66;99429.16;4887662;29;20494;-84
2023/08/23 11:37:23;;;;;;;3.75;2.50;;;;;;;29.66;61.23;99438.75;4887209;29;20530;-84
2023/08/23 11:40:10;;;;;;;2.92;2.60;;;;;;;29.56;61.60;99428.22;4887155;29;21179;-83
2023/08/23 11:42:56;;;;;;;3.42;2.47;;;;;;;29.87;59.98;99436.28;4883906;29;20039;-84
2023/08/23 11:45:41;;;;;;;2.70;2.50;;;;;;;29.84;60.23;99434.19;4890601;29;20040;-83
2023/08/23 11:48:25;;;;;;;4.18;2.55;;;;;;;29.95;59.46;99434.72;4887416;29;20051;-83
2023/08/23 11:51:09;;;;;;;2.60;2.40;;;;;;;30.44;60.25;99423.78;4889653;29;20518;-83
2023/08/23 11:53:54;;;;;;;3.88;2.80;;;;;;;30.58;60.74;99428.25;4888770;29;20043;-84
2023/08/23 11:56:40;;;;;;;3.22;2.25;;;;;;;30.62;59.51;99424.59;4886148;29;20103;-82
2023/08/23 11:59:24;;;;;;;3.83;2.30;;;;;;;30.71;59.55;99424.59;4884563;29;20071;-85
2023/08/23 12:02:09;;;;;;;3.90;2.40;;;;;;;30.12;60.88;99416.94;4889750;29;20086;-83
2023/08/23 12:04:53;;;;;;;3.17;2.47;;;;;;;30.49;59.44;99420.13;4885174;29;20519;-84
2023/08/23 12:07:37;;;;;;;3.25;2.38;;;;;;;31.68;58.07;99427.03;4887155;29;20040;-84
2023/08/23 12:10:22;;;;;;;3.72;2.47;;;;;;;31.12;56.77;99418.94;4886388;29;20185;-85
2023/08/23 12:13:06;;;;;;;2.88;2.10;;;;;;;30.88;58.69;99426.50;4887207;29;20077;-84
2023/08/23 12:15:50;;;;;;;3.25;2.80;;;;;;;30.86;57.04;99423.31;4884965;29;20047;-84
2023/08/23 12:18:35;;;;;;;2.85;2.20;;;;;;;31.08;57.54;99407.16;4886633;29;20051;-84
2023/08/23 12:21:20;;;;;;;2.45;2.25;;;;;;;30.83;56.21;99410.38;4885059;29;20510;-85
2023/08/23 12:24:04;;;;;;;3.03;2.40;;;;;;;30.74;57.72;99415.81;4893597;29;20575;-84
2023/08/23 12:26:48;;;;;;;2.03;1.92;;;;;;;30.73;57.11;99414.22;4893003;29;20067;-84
2023/08/23 12:29:32;;;;;;;2.13;1.90;;;;;;;31.02;56.95;99403.81;4895167;29;20036;-84
2023/08/23 12:32:16;;;;;;;2.90;2.22;;;;;;;31.52;56.57;99402.38;4891539;29;20040;-85
2023/08/23 12:35:00;;;;;;;2.63;2.22;;;;;;;31.57;55.65;99407.63;4888268;29;20059;-85
2023/08/23 12:37:44;;;;;;;2.53;2.33;;;;;;;31.52;55.85;99404.31;4889744;29;20551;-84
2023/08/23 12:40:28;;;;;;;2.92;2.30;;;;;;;30.95;56.63;99398.09;4890987;29;20055;-84
2023/08/23 12:43:12;;;;;;;2.20;2.00;;;;;;;31.12;56.20;99400.75;4885340;29;20502;-85
2023/08/23 12:45:56;;;;;;;4.82;2.22;;;;;;;30.45;57.23;99394.78;4885891;29;20060;-84
2023/08/23 12:48:40;;;;;;;9.68;2.53;;;;;;;30.58;56.71;99401.94;4886405;29;20040;-85